KFRG/FRG METAR and TAF weather

Enter ICAO airport designator
Station Type Date Time Source
KFRG METAR 2019/06/20 06:53 UTC NOAA

KFRG 200653Z AUTO 09005KT 8SM OVC003 18/18 A2971 RMK AO2 RAB0557E08 SLP059 P0000 T01830183


Station Type Date Time Source
KFRG Decoded METAR 2019/06/20 06:53 UTC NOAA

FARMINGDALE REPUBLIC AIRPORT , NY, United States (KFRG) 40-44N 073-25W 21M
Jun 20, 2019 - 02:53 AM EDT / 2019.06.20 0653 UTC
Wind: from the E (090 degrees) at 6 MPH (5 KT):0
Visibility: 8 mile(s):0
Sky conditions: overcast
Precipitation last hour: A trace
Temperature: 64.9 F (18.3 C)
Dew Point: 64.9 F (18.3 C)
Relative Humidity: 100%
Pressure (altimeter): 29.71 in. Hg (1006 hPa)
ob: KFRG 200653Z AUTO 09005KT 8SM OVC003 18/18 A2971 RMK AO2 RAB0557E08 SLP059 P0000 T01830183
cycle: 7

Station Type Date Time Source
KFRG TAF UTC NOAA

Error!

Example: see airport list